sensor_id;sensor_type;location;lat;lon;timestamp;P1;durP1;ratioP1;P2;durP2;ratioP2
50649;SDS011;36621;60.058;30.346;2022-11-20T00:03:22;3.72;;;2.08;;
50649;SDS011;36621;60.058;30.346;2022-11-20T00:10:55;3.63;;;1.90;;
50649;SDS011;36621;60.058;30.346;2022-11-20T00:18:28;2.53;;;2.03;;
50649;SDS011;36621;60.058;30.346;2022-11-20T00:26:02;2.20;;;1.50;;
50649;SDS011;36621;60.058;30.346;2022-11-20T00:33:35;4.45;;;2.28;;
50649;SDS011;36621;60.058;30.346;2022-11-20T00:41:08;2.85;;;1.83;;
50649;SDS011;36621;60.058;30.346;2022-11-20T00:48:42;3.38;;;2.10;;
50649;SDS011;36621;60.058;30.346;2022-11-20T00:56:16;3.78;;;2.35;;
50649;SDS011;36621;60.058;30.346;2022-11-20T01:03:51;2.92;;;2.13;;
50649;SDS011;36621;60.058;30.346;2022-11-20T01:11:25;2.63;;;1.95;;
50649;SDS011;36621;60.058;30.346;2022-11-20T01:19:00;2.50;;;1.70;;
50649;SDS011;36621;60.058;30.346;2022-11-20T01:26:34;4.35;;;2.92;;
50649;SDS011;36621;60.058;30.346;2022-11-20T01:34:09;6.25;;;2.50;;
50649;SDS011;36621;60.058;30.346;2022-11-20T01:41:44;4.32;;;2.30;;
50649;SDS011;36621;60.058;30.346;2022-11-20T01:49:37;2.80;;;2.17;;
50649;SDS011;36621;60.058;30.346;2022-11-20T01:57:13;6.68;;;2.83;;
50649;SDS011;36621;60.058;30.346;2022-11-20T02:04:47;4.07;;;2.58;;
50649;SDS011;36621;60.058;30.346;2022-11-20T02:12:23;5.53;;;2.75;;
50649;SDS011;36621;60.058;30.346;2022-11-20T02:20:33;4.85;;;2.60;;
50649;SDS011;36621;60.058;30.346;2022-11-20T02:28:06;5.53;;;2.90;;
50649;SDS011;36621;60.058;30.346;2022-11-20T02:35:40;3.03;;;2.13;;
50649;SDS011;36621;60.058;30.346;2022-11-20T02:43:15;3.22;;;2.38;;
50649;SDS011;36621;60.058;30.346;2022-11-20T02:50:48;4.53;;;2.75;;
50649;SDS011;36621;60.058;30.346;2022-11-20T02:58:21;6.13;;;2.67;;
50649;SDS011;36621;60.058;30.346;2022-11-20T03:05:55;5.03;;;2.35;;
50649;SDS011;36621;60.058;30.346;2022-11-20T03:13:30;3.88;;;2.20;;
50649;SDS011;36621;60.058;30.346;2022-11-20T03:21:03;4.05;;;2.30;;
50649;SDS011;36621;60.058;30.346;2022-11-20T03:28:36;4.28;;;2.67;;
50649;SDS011;36621;60.058;30.346;2022-11-20T03:36:11;3.70;;;2.40;;
50649;SDS011;36621;60.058;30.346;2022-11-20T03:43:47;4.63;;;2.22;;
50649;SDS011;36621;60.058;30.346;2022-11-20T03:51:22;3.97;;;1.90;;
50649;SDS011;36621;60.058;30.346;2022-11-20T03:58:56;5.10;;;2.40;;
50649;SDS011;36621;60.058;30.346;2022-11-20T04:06:29;5.85;;;3.47;;
50649;SDS011;36621;60.058;30.346;2022-11-20T16:21:40;12.90;;;6.65;;
50649;SDS011;36621;60.058;30.346;2022-11-20T16:29:13;15.20;;;7.13;;
50649;SDS011;36621;60.058;30.346;2022-11-20T16:36:46;12.48;;;7.88;;
50649;SDS011;36621;60.058;30.346;2022-11-20T16:44:20;14.98;;;6.65;;
50649;SDS011;36621;60.058;30.346;2022-11-20T16:52:03;14.65;;;7.38;;
50649;SDS011;36621;60.058;30.346;2022-11-20T16:59:47;12.68;;;7.15;;
50649;SDS011;36621;60.058;30.346;2022-11-20T17:07:21;11.20;;;6.78;;
50649;SDS011;36621;60.058;30.346;2022-11-20T17:14:55;16.30;;;7.13;;
50649;SDS011;36621;60.058;30.346;2022-11-20T17:30:09;13.85;;;7.07;;
50649;SDS011;36621;60.058;30.346;2022-11-20T17:37:45;11.93;;;8.20;;
50649;SDS011;36621;60.058;30.346;2022-11-20T17:45:23;17.17;;;7.80;;
50649;SDS011;36621;60.058;30.346;2022-11-20T17:52:58;14.13;;;8.60;;
50649;SDS011;36621;60.058;30.346;2022-11-20T18:00:31;15.00;;;7.95;;
50649;SDS011;36621;60.058;30.346;2022-11-20T18:08:05;11.27;;;6.90;;
50649;SDS011;36621;60.058;30.346;2022-11-20T18:15:37;16.17;;;7.75;;
50649;SDS011;36621;60.058;30.346;2022-11-20T18:23:16;13.85;;;8.13;;
50649;SDS011;36621;60.058;30.346;2022-11-20T18:30:54;16.25;;;7.57;;
50649;SDS011;36621;60.058;30.346;2022-11-20T18:38:28;12.68;;;8.25;;
50649;SDS011;36621;60.058;30.346;2022-11-20T18:46:04;12.73;;;7.60;;
50649;SDS011;36621;60.058;30.346;2022-11-20T18:53:42;12.82;;;7.65;;
50649;SDS011;36621;60.058;30.346;2022-11-20T19:01:16;13.07;;;8.05;;
50649;SDS011;36621;60.058;30.346;2022-11-20T19:08:50;12.65;;;7.07;;
50649;SDS011;36621;60.058;30.346;2022-11-20T19:16:26;9.98;;;6.32;;
50649;SDS011;36621;60.058;30.346;2022-11-20T19:24:01;10.07;;;6.63;;
50649;SDS011;36621;60.058;30.346;2022-11-20T19:31:34;8.60;;;5.97;;
50649;SDS011;36621;60.058;30.346;2022-11-20T19:39:08;7.50;;;5.57;;
50649;SDS011;36621;60.058;30.346;2022-11-20T19:46:42;7.95;;;5.50;;
50649;SDS011;36621;60.058;30.346;2022-11-20T19:54:15;8.98;;;6.03;;
50649;SDS011;36621;60.058;30.346;2022-11-20T20:01:48;9.50;;;6.25;;
50649;SDS011;36621;60.058;30.346;2022-11-20T20:09:21;7.32;;;5.53;;
50649;SDS011;36621;60.058;30.346;2022-11-20T20:16:59;6.55;;;5.35;;
50649;SDS011;36621;60.058;30.346;2022-11-20T20:24:32;7.90;;;5.55;;
50649;SDS011;36621;60.058;30.346;2022-11-20T20:32:04;6.55;;;4.97;;
50649;SDS011;36621;60.058;30.346;2022-11-20T20:39:38;5.70;;;4.53;;
50649;SDS011;36621;60.058;30.346;2022-11-20T20:47:10;6.63;;;5.13;;
50649;SDS011;36621;60.058;30.346;2022-11-20T20:54:43;5.60;;;4.50;;
50649;SDS011;36621;60.058;30.346;2022-11-20T21:02:15;5.93;;;4.50;;
50649;SDS011;36621;60.058;30.346;2022-11-20T21:09:48;6.97;;;4.55;;
50649;SDS011;36621;60.058;30.346;2022-11-20T21:17:23;6.15;;;4.88;;
50649;SDS011;36621;60.058;30.346;2022-11-20T21:24:57;5.95;;;4.13;;
50649;SDS011;36621;60.058;30.346;2022-11-20T21:32:30;7.05;;;4.55;;
50649;SDS011;36621;60.058;30.346;2022-11-20T21:40:03;6.68;;;4.65;;
50649;SDS011;36621;60.058;30.346;2022-11-20T21:47:36;6.40;;;4.88;;
50649;SDS011;36621;60.058;30.346;2022-11-20T21:55:09;7.70;;;5.47;;
50649;SDS011;36621;60.058;30.346;2022-11-20T22:02:41;6.50;;;4.93;;
50649;SDS011;36621;60.058;30.346;2022-11-20T22:10:14;6.20;;;4.22;;
50649;SDS011;36621;60.058;30.346;2022-11-20T22:17:46;7.07;;;5.32;;
50649;SDS011;36621;60.058;30.346;2022-11-20T22:25:37;6.63;;;4.65;;
50649;SDS011;36621;60.058;30.346;2022-11-20T22:33:09;5.90;;;4.78;;
50649;SDS011;36621;60.058;30.346;2022-11-20T22:40:42;7.43;;;5.30;;
50649;SDS011;36621;60.058;30.346;2022-11-20T22:48:16;6.30;;;5.07;;
50649;SDS011;36621;60.058;30.346;2022-11-20T22:55:49;7.00;;;4.82;;
50649;SDS011;36621;60.058;30.346;2022-11-20T23:03:22;6.07;;;4.90;;
50649;SDS011;36621;60.058;30.346;2022-11-20T23:10:57;6.38;;;5.40;;
50649;SDS011;36621;60.058;30.346;2022-11-20T23:18:30;6.20;;;5.03;;
50649;SDS011;36621;60.058;30.346;2022-11-20T23:26:05;7.25;;;5.20;;
50649;SDS011;36621;60.058;30.346;2022-11-20T23:33:38;7.25;;;5.03;;
50649;SDS011;36621;60.058;30.346;2022-11-20T23:41:14;6.00;;;4.85;;
50649;SDS011;36621;60.058;30.346;2022-11-20T23:48:46;8.10;;;5.70;;
50649;SDS011;36621;60.058;30.346;2022-11-20T23:56:19;9.73;;;5.85;;
